May 17, 2022

Time Code Weather Temp. Visibility Clouds Wind METAR/SPECI
3:50 pm
V
75 °F 6¼ mi+ - 050°   050° 5 kt METAR EDDS 171350Z AUTO 05005KT 010V100 CAVOK 24/10 Q1021 NOSIG
3:20 pm
V
75 °F 6¼ mi+ - Var   Var 4 kt METAR EDDS 171320Z AUTO VRB04KT CAVOK 24/11 Q1021 NOSIG
2:50 pm
V
75 °F 6¼ mi+ - 360°   360° 5 kt METAR EDDS 171250Z AUTO 36005KT 280V050 CAVOK 24/11 Q1021 NOSIG
2:20 pm
V
73 °F 6¼ mi+ - 080°   080° 3 kt METAR EDDS 171220Z AUTO 08003KT 010V180 CAVOK 23/11 Q1022 NOSIG
1:50 pm
V
73 °F 6¼ mi+ - 060°   060° 5 kt METAR EDDS 171150Z AUTO 06005KT 010V150 CAVOK 23/12 Q1022 NOSIG
1:20 pm
V
72 °F 6¼ mi+ - 050°   050° 4 kt METAR EDDS 171120Z AUTO 05004KT 330V130 9999 FEW045 22/12 Q1022 NOSIG
12:50 pm
V
72 °F 6¼ mi+ - 100°   100° 4 kt METAR EDDS 171050Z AUTO 10004KT 060V130 9999 FEW042 22/11 Q1022 NOSIG
12:20 pm
V
72 °F 6¼ mi+ - Var   Var 3 kt METAR EDDS 171020Z AUTO VRB03KT 9999 FEW039 22/12 Q1023 NOSIG
11:50 am
V
70 °F 6¼ mi+ - Var   Var 3 kt METAR EDDS 170950Z AUTO VRB03KT CAVOK 21/11 Q1023 NOSIG
11:20 am
V
70 °F 6¼ mi+ - Var   Var 2 kt METAR EDDS 170920Z AUTO VRB02KT 9999 ///////// 21/12 Q1023 RE// NOSIG
10:50 am
L
70 °F 0 mi - Var   Var 3 kt METAR EDDS 170850Z AUTO VRB03KT //// R07/P2000N ////// 21/13 Q1023 RE//
10:20 am
V
68 °F 6¼ mi+ - 120°   120° 3 kt METAR EDDS 170820Z 12003KT 050V190 9999 FEW028 20/13 Q1023 NOSIG
9:50 am
V
66 °F 6¼ mi+ - 090°   090° 3 kt METAR EDDS 170750Z 09003KT 040V160 9999 FEW024 19/13 Q1023 NOSIG
9:20 am
V
66 °F 6¼ mi+ - Var   Var 2 kt METAR EDDS 170720Z VRB02KT 9999 FEW022 19/13 Q1023 NOSIG
8:50 am
V
63 °F 6¼ mi+ - 090°   090° 3 kt METAR EDDS 170650Z 09003KT 050V130 9999 FEW020 17/13 Q1023 NOSIG
8:20 am
V
61 °F 6¼ mi+ - Var   Var 2 kt METAR EDDS 170620Z VRB02KT 9999 FEW020 16/12 Q1023 NOSIG
7:50 am
V
57 °F 6¼ mi+ - Var   Var 2 kt METAR EDDS 170550Z VRB02KT 9999 FEW020 14/11 Q1023 NOSIG
7:20 am
V
55 °F 6¼ mi+ - Var   Var 2 kt METAR EDDS 170520Z VRB02KT 9999 FEW020 13/11 Q1022 NOSIG
6:50 am
V
57 °F 6¼ mi+ - Var   Var 1 kt METAR EDDS 170450Z VRB01KT 9999 FEW020 14/11 Q1022 NOSIG
6:20 am
V
52 °F 6¼ mi+ - 070°   070° 1 kt METAR EDDS 170420Z 07001KT 9999 FEW020 11/10 Q1022 NOSIG
5:50 am
V
50 °F 6¼ mi+ - Var   Var 1 kt METAR EDDS 170350Z VRB01KT 9999 FEW020 10/09 Q1022 NOSIG
5:20 am
V
50 °F 6¼ mi+ - Var   Var 1 kt METAR EDDS 170320Z VRB01KT 9999 FEW020 10/09 Q1022
4:50 am
V
50 °F 6¼ mi+ - Var   000° 0 kt METAR EDDS 170250Z 00000KT CAVOK 10/10 Q1022
4:20 am
V
52 °F 6¼ mi+ - Var   Var 1 kt METAR EDDS 170220Z VRB01KT CAVOK 11/09 Q1021
3:50 am
V
52 °F 6¼ mi+ - 110°   110° 1 kt METAR EDDS 170150Z 11001KT CAVOK 11/10 Q1021
3:20 am
V
55 °F 6¼ mi+ - Var   Var 2 kt METAR EDDS 170120Z VRB02KT CAVOK 13/10 Q1021
2:50 am
V
55 °F 6¼ mi+ - Var   Var 2 kt METAR EDDS 170050Z VRB02KT CAVOK 13/10 Q1022
2:20 am
V
55 °F 6¼ mi+ - Var   Var 1 kt METAR EDDS 170020Z VRB01KT CAVOK 13/11 Q1022
1:50 am
V
55 °F 6¼ mi+ - Var   Var 2 kt METAR EDDS 162350Z VRB02KT CAVOK 13/11 Q1022
1:20 am
V
57 °F 6¼ mi+ - 240°   240° 4 kt METAR EDDS 162320Z 24004KT 210V270 CAVOK 14/11 Q1021
12:50 am
V
57 °F 6¼ mi+ - 260°   260° 4 kt METAR EDDS 162250Z 26004KT CAVOK 14/11 Q1022
12:20 am
V
57 °F 6¼ mi+ - 240°   240° 5 kt METAR EDDS 162220Z 24005KT CAVOK 14/11 Q1021

May 16, 2022

Time Code Weather Temp. Visibility Clouds Wind METAR/SPECI
11:50 pm
V
57 °F 6¼ mi+ - 260°   260° 5 kt METAR EDDS 162150Z 26005KT CAVOK 14/11 Q1022
11:20 pm
V
59 °F 6¼ mi+ - 240°   240° 3 kt METAR EDDS 162120Z 24003KT CAVOK 15/11 Q1022
10:50 pm
V
61 °F 6¼ mi+ - 260°   260° 5 kt METAR EDDS 162050Z 26005KT CAVOK 16/11 Q1022
10:20 pm
V
61 °F 6¼ mi+ - 280°   280° 4 kt METAR EDDS 162020Z 28004KT CAVOK 16/11 Q1021
9:50 pm
V
61 °F 6¼ mi+ - 280°   280° 6 kt METAR EDDS 161950Z 28006KT CAVOK 16/11 Q1021 NOSIG
9:20 pm
V
61 °F 6¼ mi+ - 290°   290° 7 kt METAR EDDS 161920Z 29007KT CAVOK 16/11 Q1021 NOSIG
8:50 pm
V
66 °F 6¼ mi+ - 280°   280° 6 kt METAR EDDS 161850Z 28006KT 9999 FEW032 19/10 Q1021 NOSIG
8:20 pm
V
66 °F 6¼ mi+ - 280°   280° 10 kt METAR EDDS 161820Z 28010KT 9999 FEW032 19/11 Q1020 NOSIG
7:50 pm
V
68 °F 6¼ mi+ - 270°   270° 13 kt METAR EDDS 161750Z 27013KT 9999 FEW032 20/12 Q1020 NOSIG
7:20 pm
V
68 °F 6¼ mi+ - 280°   280° 14 kt METAR EDDS 161720Z 28014KT 9999 FEW032 20/12 Q1019 NOSIG
6:50 pm
V
68 °F 6¼ mi+ - 260°   260° 16 kt METAR EDDS 161650Z 26016KT 230V290 9999 FEW038 20/12 Q1019 NOSIG
6:20 pm
V
70 °F 6¼ mi+ - 310°   310° 11 kt METAR EDDS 161620Z 31011KT 280V340 9999 SCT031 21/14 Q1019 NOSIG
5:50 pm
V
70 °F 6¼ mi+ - 320°   320° 9 kt METAR EDDS 161550Z 32009KT 280V340 9999 SCT035 SCT047 21/14 Q1019 NOSIG
5:20 pm
V
72 °F 6¼ mi+ - 260°   260° 6 kt METAR EDDS 161520Z 26006KT 210V290 9999 SCT031 22/14 Q1019 NOSIG
4:50 pm
V
70 °F 6¼ mi+ - 260°   260° 9 kt METAR EDDS 161450Z 26009KT 180V300 9999 FEW027 21/14 Q1019 NOSIG
4:20 pm
V
70 °F 6¼ mi+ - 240°   240° 8 kt METAR EDDS 161420Z 24008KT 130V280 9999 FEW022 21/15 Q1019 NOSIG
3:50 pm
V
68 °F 6¼ mi+ - 250°   250° 5 kt METAR EDDS 161350Z 25005KT 190V290 9999 FEW022 20/15 Q1020 NOSIG
3:20 pm
V
66 °F 6¼ mi+ - 260°   260° 4 kt METAR EDDS 161320Z 26004KT 210V310 9999 FEW025CB 19/13 Q1020 NOSIG
2:50 pm
V
63 °F 6¼ mi+ - 260°   260° 8 kt METAR EDDS 161250Z 26008KT 220V290 9999 -SHRA FEW030CB 17/14 Q1020 NOSIG
2:20 pm
V
63 °F 6¼ mi+ - 260°   260° 9 kt METAR EDDS 161220Z 26009KT 230V300 9999 -SHRA SCT030CB SCT049 17/13 Q1020 TEMPO TSRA
1:50 pm
V
66 °F 6¼ mi+ 4,900 ft 250°   250° 16 kt METAR EDDS 161150Z 25016KT 9999 -SHRA SCT030CB BKN049 19/11 Q1020 TEMPO 26015G25KT TSRA
1:20 pm
V
72 °F 6¼ mi+ - 280°   280° 13 kt METAR EDDS 161120Z 28013KT 9999 -SHRA SCT046CB 22/12 Q1019 TEMPO 26015G25KT TSRA
12:50 pm
V
73 °F 6¼ mi+ - 280°   280° 15 kt METAR EDDS 161050Z 28015KT 9999 VCTS SCT046CB 23/12 Q1019 TEMPO 26015G25KT TSRA
12:20 pm
V
73 °F 6¼ mi+ - 260°   260° 10 kt METAR EDDS 161020Z 26010KT 230V290 9999 SCT046TCU 23/13 Q1019 TEMPO SHRA
11:50 am
V
73 °F 6¼ mi+ - 250°   250° 5 kt METAR EDDS 160950Z 25005KT 140V300 9999 SCT042 23/13 Q1019 NOSIG
11:20 am
V
73 °F 6¼ mi+ - Var   Var 3 kt METAR EDDS 160920Z VRB03KT 9999 SCT048TCU 23/13 Q1019 NOSIG
10:50 am
V
72 °F 6¼ mi+ - 270°   270° 3 kt METAR EDDS 160850Z 27003KT 230V310 9999 VCSH SCT048TCU 22/13 Q1019 TEMPO SHRA
10:20 am
V
72 °F 6¼ mi+ - 170°   170° 4 kt METAR EDDS 160820Z 17004KT 110V240 9999 VCSH SCT048TCU 22/13 Q1018 TEMPO SHRA
9:50 am
V
70 °F 6¼ mi+ - 160°   160° 6 kt METAR EDDS 160750Z 16006KT 120V280 9999 VCSH FEW060TCU 21/13 Q1018 TEMPO SHRA
9:20 am
V
70 °F 6¼ mi+ - 090°   090° 3 kt METAR EDDS 160720Z 09003KT 040V160 9999 FEW047 21/13 Q1018 NOSIG
8:50 am
V
64 °F 6¼ mi+ - Var   Var 1 kt METAR EDDS 160650Z VRB01KT 9999 FEW047 18/13 Q1018 NOSIG
8:20 am
V
61 °F 6¼ mi+ - Var   Var 1 kt METAR EDDS 160620Z VRB01KT 9999 VCSH FEW047TCU 16/12 Q1018 NOSIG
7:50 am
V
59 °F 6¼ mi+ - Var   Var 1 kt METAR EDDS 160550Z VRB01KT 9999 SCT047TCU 15/12 Q1017 NOSIG
7:20 am
V
57 °F 6¼ mi+ - Var   Var 2 kt METAR EDDS 160520Z VRB02KT 9999 SCT047TCU 14/12 Q1017 NOSIG
6:50 am
V
57 °F 6¼ mi+ - Var   Var 2 kt METAR EDDS 160450Z VRB02KT 9999 -SHRA SCT040TCU 14/11 Q1017 TEMPO SHRA
6:20 am
V
57 °F 6¼ mi+ - Var   Var 1 kt METAR EDDS 160420Z VRB01KT 9999 VCSH NSC 14/10 Q1017 TEMPO SHRA
5:50 am
V
57 °F 6¼ mi+ - Var   Var 2 kt METAR EDDS 160350Z VRB02KT CAVOK 14/10 Q1017
5:20 am
V
57 °F 6¼ mi+ - Var   Var 1 kt METAR EDDS 160320Z VRB01KT CAVOK 14/09 Q1016
4:50 am
V
55 °F 6¼ mi+ - 330°   330° 3 kt METAR EDDS 160250Z 33003KT 310V040 CAVOK 13/09 Q1016
4:20 am
V
55 °F 6¼ mi+ - 020°   020° 3 kt METAR EDDS 160220Z 02003KT 350V060 CAVOK 13/08 Q1016
3:50 am
V
55 °F 6¼ mi+ - Var   Var 2 kt METAR EDDS 160150Z VRB02KT CAVOK 13/09 Q1017
3:20 am
V
54 °F 6¼ mi+ - Var   Var 1 kt METAR EDDS 160120Z VRB01KT CAVOK 12/09 Q1016
2:50 am
V
55 °F 6¼ mi+ - Var   Var 1 kt METAR EDDS 160050Z VRB01KT CAVOK 13/09 Q1016
2:20 am
V
57 °F 6¼ mi+ - 300°   300° 1 kt METAR EDDS 160020Z 30001KT CAVOK 14/09 Q1017
1:50 am
V
57 °F 6¼ mi+ - Var   Var 2 kt METAR EDDS 152350Z VRB02KT CAVOK 14/09 Q1017
1:20 am
V
57 °F 6¼ mi+ - Var   Var 2 kt METAR EDDS 152320Z VRB02KT CAVOK 14/09 Q1017
12:50 am
V
57 °F 6¼ mi+ - 320°   320° 2 kt METAR EDDS 152250Z 32002KT CAVOK 14/09 Q1017
12:20 am
V
57 °F 6¼ mi+ - Var   Var 1 kt METAR EDDS 152220Z VRB01KT CAVOK 14/09 Q1017

May 15, 2022

Time Code Weather Temp. Visibility Clouds Wind METAR/SPECI
11:50 pm
V
61 °F 6¼ mi+ - 010°   010° 2 kt METAR EDDS 152150Z 01002KT CAVOK 16/10 Q1017
11:20 pm
V
61 °F 6¼ mi+ - Var   000° 0 kt METAR EDDS 152120Z 00000KT CAVOK 16/09 Q1017
10:50 pm
V
64 °F 6¼ mi+ - 020°   020° 1 kt METAR EDDS 152050Z 02001KT CAVOK 18/08 Q1017
10:20 pm
V
64 °F 6¼ mi+ - Var   Var 2 kt METAR EDDS 152020Z VRB02KT CAVOK 18/09 Q1017
9:50 pm
V
64 °F 6¼ mi+ - 090°   090° 3 kt METAR EDDS 151950Z 09003KT CAVOK 18/09 Q1016 NOSIG
9:20 pm
V
66 °F 6¼ mi+ - 090°   090° 3 kt METAR EDDS 151920Z 09003KT CAVOK 19/10 Q1016 NOSIG
8:50 pm
V
68 °F 6¼ mi+ - 090°   090° 4 kt METAR EDDS 151850Z 09004KT CAVOK 20/10 Q1016 NOSIG
8:20 pm
V
72 °F 6¼ mi+ - 090°   090° 5 kt METAR EDDS 151820Z 09005KT CAVOK 22/10 Q1016 NOSIG
7:50 pm
V
73 °F 6¼ mi+ - 090°   090° 6 kt METAR EDDS 151750Z 09006KT CAVOK 23/10 Q1016 NOSIG
7:20 pm
V
75 °F 6¼ mi+ - 080°   080° 7 kt METAR EDDS 151720Z 08007KT CAVOK 24/08 Q1016 NOSIG
6:50 pm
V
75 °F 6¼ mi+ - 090°   090° 6 kt METAR EDDS 151650Z 09006KT CAVOK 24/09 Q1016 NOSIG
6:20 pm
V
77 °F 6¼ mi+ - 090°   090° 5 kt METAR EDDS 151620Z 09005KT 060V130 CAVOK 25/09 Q1016 NOSIG
5:50 pm
V
77 °F 6¼ mi+ - 050°   050° 6 kt METAR EDDS 151550Z 05006KT 030V100 CAVOK 25/10 Q1016 NOSIG
5:20 pm
V
77 °F 6¼ mi+ - 080°   080° 5 kt METAR EDDS 151520Z 08005KT 050V130 CAVOK 25/10 Q1017 NOSIG
4:50 pm
V
77 °F 6¼ mi+ - 070°   070° 7 kt METAR EDDS 151450Z 07007KT 020V080 CAVOK 25/09 Q1017 NOSIG
4:20 pm
V
77 °F 6¼ mi+ - 050°   050° 6 kt METAR EDDS 151420Z 05006KT 350V090 CAVOK 25/10 Q1017 NOSIG
3:50 pm
V
77 °F 6¼ mi+ - 070°   070° 7 kt METAR EDDS 151350Z 07007KT 030V130 CAVOK 25/10 Q1017 NOSIG
Older data

Download our app

Easy access to all aviation weather on your mobile phone and tablet.
With many features not available on the website, like offline support and a personal airport list.